Time;durP1;ratioP1;P1;durP2;ratioP2;P2;SDS_P1;SDS_P2;PMS_P1;PMS_P2;Temp;Humidity;BMP_temperature;BMP_pressure;BME280_temperature;BME280_humidity;BME280_pressure;Samples;Min_cycle;Max_cycle;Signal;HPM_P1;HPM_P2
2023/11/01 00:01:42;;;;;;;3.90;0.50;;;11.00;99.90;;;;;;5008973;28;20022;-91
2023/11/01 00:04:08;;;;;;;3.10;0.40;;;11.00;99.90;;;;;;5022845;28;20491;-92
2023/11/01 00:06:34;;;;;;;2.28;0.50;;;11.00;99.90;;;;;;4992626;28;20103;-89
2023/11/01 00:08:59;;;;;;;3.47;0.40;;;11.00;99.90;;;;;;5010668;28;20508;-90
2023/11/01 00:11:25;;;;;;;3.13;0.38;;;11.00;99.90;;;;;;5024270;28;20044;-91
2023/11/01 00:13:51;;;;;;;3.35;0.40;;;11.00;99.90;;;;;;5008662;28;20070;-90
2023/11/01 00:16:16;;;;;;;2.35;0.40;;;11.00;99.90;;;;;;5009152;28;20482;-90
2023/11/01 00:18:42;;;;;;;2.17;0.40;;;11.00;99.90;;;;;;5009546;28;20109;-88
2023/11/01 00:21:08;;;;;;;2.00;0.50;;;11.00;99.90;;;;;;5012190;28;20113;-89
2023/11/01 00:23:34;;;;;;;2.33;0.50;;;11.10;99.90;;;;;;4991671;28;20088;-89
2023/11/01 00:25:59;;;;;;;0.70;0.30;;;11.10;99.90;;;;;;5010569;28;20030;-89
2023/11/01 00:28:27;;;;;;;1.52;0.40;;;11.00;99.90;;;;;;5015517;28;20030;-90
2023/11/01 00:30:52;;;;;;;2.25;0.30;;;11.00;99.90;;;;;;5007852;28;20469;-90
2023/11/01 00:33:18;;;;;;;2.90;0.47;;;11.00;99.90;;;;;;5004245;28;20125;-89
2023/11/01 00:35:44;;;;;;;1.75;0.35;;;11.00;99.90;;;;;;5022943;28;20023;-89
2023/11/01 00:38:10;;;;;;;2.42;0.40;;;11.10;99.90;;;;;;5006334;28;20029;-90
2023/11/01 00:40:35;;;;;;;1.50;0.35;;;11.00;99.90;;;;;;5007113;28;20034;-89
2023/11/01 00:43:03;;;;;;;1.20;0.30;;;11.00;99.90;;;;;;4992337;28;20034;-89
2023/11/01 00:45:29;;;;;;;1.52;0.40;;;11.00;99.90;;;;;;5006874;28;20034;-90
2023/11/01 00:47:55;;;;;;;1.10;0.30;;;11.10;99.90;;;;;;5006729;28;20030;-88
2023/11/01 00:50:20;;;;;;;3.67;0.70;;;11.10;99.90;;;;;;4992018;28;20053;-89
2023/11/01 00:52:46;;;;;;;1.42;0.40;;;11.10;99.90;;;;;;5006500;28;20034;-88
2023/11/01 00:55:12;;;;;;;3.40;0.50;;;11.10;99.90;;;;;;5007338;28;20364;-88
2023/11/01 00:57:38;;;;;;;2.45;0.60;;;11.10;99.90;;;;;;4989689;28;20558;-88
2023/11/01 01:00:06;;;;;;;2.47;0.63;;;11.10;99.90;;;;;;5020722;28;20114;-91
2023/11/01 01:02:33;;;;;;;1.13;0.50;;;11.10;99.90;;;;;;5008412;28;20482;-90
2023/11/01 01:04:59;;;;;;;2.40;0.50;;;11.10;99.90;;;;;;5006419;28;20065;-90
2023/11/01 01:07:24;;;;;;;2.13;0.55;;;11.10;99.90;;;;;;5010513;28;20080;-90
2023/11/01 01:09:50;;;;;;;1.85;0.47;;;11.10;99.90;;;;;;4989273;28;20433;-88
2023/11/01 01:12:16;;;;;;;2.22;0.70;;;11.10;99.90;;;;;;5016041;28;20516;-90
2023/11/01 01:14:41;;;;;;;1.27;0.40;;;11.10;99.90;;;;;;5022325;28;20379;-89
2023/11/01 01:17:07;;;;;;;1.63;0.40;;;11.10;99.90;;;;;;5005598;28;20048;-89
2023/11/01 01:19:32;;;;;;;1.73;0.40;;;11.10;99.90;;;;;;5003844;28;20030;-92
2023/11/01 01:21:58;;;;;;;3.53;0.50;;;11.10;99.90;;;;;;5008177;28;20028;-91
2023/11/01 01:24:24;;;;;;;1.17;0.30;;;11.20;99.90;;;;;;5006627;28;20038;-89
2023/11/01 01:26:50;;;;;;;4.40;0.70;;;11.20;99.90;;;;;;4994080;28;20434;-92
2023/11/01 01:29:15;;;;;;;2.65;0.40;;;11.20;99.90;;;;;;4992750;28;20032;-88
2023/11/01 01:31:41;;;;;;;1.52;0.40;;;11.20;99.90;;;;;;5018323;28;20104;-89
2023/11/01 01:34:06;;;;;;;2.70;0.40;;;11.20;99.90;;;;;;5022817;28;20478;-88
2023/11/01 01:36:33;;;;;;;3.03;0.38;;;11.20;99.90;;;;;;5024715;28;20073;-90
2023/11/01 01:38:59;;;;;;;1.50;0.45;;;11.10;99.90;;;;;;5009434;28;20041;-89
2023/11/01 01:41:24;;;;;;;2.33;0.50;;;11.20;99.90;;;;;;5008369;28;20036;-90
2023/11/01 01:43:50;;;;;;;3.13;0.40;;;11.20;99.90;;;;;;5019387;28;20042;-91
2023/11/01 01:46:17;;;;;;;2.85;0.40;;;11.20;99.90;;;;;;5011162;28;20038;-92
2023/11/01 01:48:45;;;;;;;1.83;0.30;;;11.10;99.90;;;;;;5005976;28;20156;-89
2023/11/01 01:51:12;;;;;;;3.22;0.40;;;11.20;99.90;;;;;;5006805;28;20558;-89
2023/11/01 01:53:40;;;;;;;1.90;0.45;;;11.10;99.90;;;;;;5007137;28;20552;-92
2023/11/01 01:56:09;;;;;;;2.17;0.40;;;11.10;99.90;;;;;;5007997;28;20087;-92
2023/11/01 01:58:37;;;;;;;1.60;0.40;;;11.10;99.90;;;;;;5018278;28;20092;-91
2023/11/01 02:01:04;;;;;;;2.47;0.40;;;11.10;99.90;;;;;;4986337;28;20026;-86
2023/11/01 02:03:30;;;;;;;1.60;0.20;;;11.10;99.90;;;;;;4988464;28;20026;-91
2023/11/01 02:05:57;;;;;;;1.42;0.43;;;11.10;99.90;;;;;;4992729;28;20121;-92
2023/11/01 02:08:24;;;;;;;2.50;0.40;;;11.10;99.90;;;;;;4990772;28;20030;-88
2023/11/01 02:10:49;;;;;;;2.88;0.40;;;11.10;99.90;;;;;;5007869;28;20037;-86
2023/11/01 02:13:15;;;;;;;0.50;0.20;;;11.10;99.90;;;;;;4989671;28;20030;-91
2023/11/01 02:15:42;;;;;;;1.85;0.32;;;11.10;99.90;;;;;;5021677;28;20118;-88
2023/11/01 02:18:08;;;;;;;2.15;0.45;;;11.00;99.90;;;;;;5021389;28;20062;-87
2023/11/01 02:20:37;;;;;;;2.45;0.32;;;11.00;99.90;;;;;;4990861;28;20030;-87
2023/11/01 02:23:10;;;;;;;2.15;0.30;;;11.10;99.90;;;;;;5005888;28;20045;-87
2023/11/01 02:25:36;;;;;;;1.25;0.30;;;11.00;99.90;;;;;;5004492;28;20037;-89
2023/11/01 02:28:03;;;;;;;1.75;0.30;;;11.00;99.90;;;;;;5008485;28;20025;-88
2023/11/01 02:30:29;;;;;;;2.47;0.30;;;11.00;99.90;;;;;;5005008;28;20113;-86
2023/11/01 02:32:55;;;;;;;3.33;0.30;;;11.00;99.90;;;;;;5006492;28;20125;-87
2023/11/01 02:35:21;;;;;;;1.13;0.25;;;11.10;99.90;;;;;;5008310;28;20022;-85
2023/11/01 02:37:50;;;;;;;1.15;0.20;;;11.00;99.90;;;;;;5005291;28;20025;-83
2023/11/01 02:40:16;;;;;;;3.08;0.30;;;11.00;99.90;;;;;;4991952;28;20030;-85
2023/11/01 02:42:47;;;;;;;1.35;0.30;;;11.00;99.90;;;;;;4987642;28;20034;-85
2023/11/01 02:45:14;;;;;;;1.88;0.30;;;11.10;99.90;;;;;;4981786;28;20096;-85
2023/11/01 02:47:42;;;;;;;2.05;0.22;;;11.10;99.90;;;;;;4988287;28;20374;-87
2023/11/01 02:50:13;;;;;;;3.65;0.63;;;11.10;99.90;;;;;;5002470;28;20482;-90
2023/11/01 02:52:39;;;;;;;1.42;0.20;;;11.10;99.90;;;;;;5001312;28;20383;-86
2023/11/01 02:55:13;;;;;;;1.17;0.20;;;11.10;99.90;;;;;;5000985;28;20037;-84
2023/11/01 02:57:39;;;;;;;1.45;0.30;;;11.10;99.90;;;;;;4986971;28;20077;-85
2023/11/01 03:00:07;;;;;;;1.88;0.20;;;11.10;99.90;;;;;;5005107;28;20037;-87
2023/11/01 03:02:37;;;;;;;2.45;0.20;;;11.10;99.90;;;;;;5003562;28;20041;-86
2023/11/01 03:05:04;;;;;;;1.42;0.20;;;11.10;99.90;;;;;;5021855;28;20022;-87
2023/11/01 03:07:31;;;;;;;0.50;0.20;;;11.10;99.90;;;;;;5015156;28;20032;-88
2023/11/01 03:09:57;;;;;;;1.55;0.20;;;11.10;99.90;;;;;;5007449;28;20378;-88
2023/11/01 03:12:22;;;;;;;1.42;0.20;;;11.10;99.90;;;;;;5004628;28;20064;-90
2023/11/01 03:14:48;;;;;;;0.70;0.13;;;11.10;99.90;;;;;;5006691;28;20445;-90
2023/11/01 03:17:14;;;;;;;0.57;0.17;;;11.10;99.90;;;;;;5005552;28;20112;-90
2023/11/01 03:19:40;;;;;;;0.90;0.20;;;11.10;99.90;;;;;;5007134;28;20029;-88
2023/11/01 03:22:08;;;;;;;1.10;0.10;;;11.10;99.90;;;;;;5007691;28;20038;-89
2023/11/01 03:24:34;;;;;;;1.33;0.10;;;11.10;99.90;;;;;;5007385;28;20196;-86
2023/11/01 03:27:00;;;;;;;0.73;0.10;;;11.10;99.90;;;;;;5005438;28;20220;-93
2023/11/01 03:29:26;;;;;;;0.85;0.15;;;11.10;99.90;;;;;;5006709;28;20054;-91
2023/11/01 03:31:52;;;;;;;0.90;0.20;;;11.10;99.90;;;;;;5006520;28;20120;-92
2023/11/01 03:34:18;;;;;;;0.75;0.20;;;11.10;99.90;;;;;;5008496;28;20478;-92
2023/11/01 03:36:44;;;;;;;1.45;0.20;;;11.10;99.90;;;;;;5021039;28;20280;-93
2023/11/01 03:39:10;;;;;;;0.93;0.20;;;11.10;99.90;;;;;;5008231;28;20360;-93
2023/11/01 03:41:42;;;;;;;0.57;0.20;;;11.10;99.90;;;;;;5005712;28;20060;-89
2023/11/01 03:44:09;;;;;;;0.55;0.20;;;11.10;99.90;;;;;;5008117;28;20061;-90
2023/11/01 03:46:36;;;;;;;0.70;0.20;;;11.10;99.90;;;;;;4987354;28;20471;-84
2023/11/01 03:49:02;;;;;;;0.85;0.20;;;11.10;99.90;;;;;;5020143;28;20080;-89
2023/11/01 03:51:28;;;;;;;0.73;0.20;;;11.10;99.90;;;;;;5004300;28;20482;-87
2023/11/01 03:53:54;;;;;;;1.55;0.20;;;11.10;99.90;;;;;;5004718;28;20092;-90
2023/11/01 03:56:21;;;;;;;3.78;0.43;;;11.10;99.90;;;;;;4991389;28;20534;-87
2023/11/01 03:58:47;;;;;;;1.25;0.35;;;11.10;99.90;;;;;;5019967;28;20121;-88
2023/11/01 04:01:13;;;;;;;0.68;0.25;;;11.10;99.90;;;;;;5003825;28;20041;-87
2023/11/01 04:03:38;;;;;;;1.23;0.30;;;11.10;99.90;;;;;;4991283;28;20029;-90
2023/11/01 04:06:06;;;;;;;3.55;0.40;;;11.20;99.90;;;;;;5006134;28;20489;-84
2023/11/01 04:08:32;;;;;;;1.95;0.30;;;11.10;99.90;;;;;;5004415;28;20112;-89
2023/11/01 04:10:58;;;;;;;1.45;0.30;;;11.10;99.90;;;;;;5023649;28;20106;-89
2023/11/01 04:13:23;;;;;;;1.05;0.22;;;11.10;99.90;;;;;;4990940;28;20101;-85
2023/11/01 04:15:49;;;;;;;1.42;0.30;;;11.10;99.90;;;;;;5005920;28;20022;-85
2023/11/01 04:18:15;;;;;;;1.83;0.20;;;11.10;99.90;;;;;;5010761;28;20452;-89
2023/11/01 04:20:41;;;;;;;0.75;0.20;;;11.10;99.90;;;;;;5006978;28;20030;-89
2023/11/01 04:23:06;;;;;;;1.75;0.20;;;11.10;99.90;;;;;;4993009;28;20030;-88
2023/11/01 04:25:33;;;;;;;3.95;0.65;;;11.10;99.90;;;;;;5015685;28;20067;-87
2023/11/01 04:27:59;;;;;;;1.25;0.20;;;11.10;99.90;;;;;;4992363;28;20121;-87
2023/11/01 04:30:25;;;;;;;0.75;0.10;;;11.20;99.90;;;;;;5015626;28;20481;-88
2023/11/01 04:32:51;;;;;;;0.95;0.30;;;11.10;99.90;;;;;;5008643;28;20088;-86
2023/11/01 04:35:17;;;;;;;1.15;0.30;;;11.10;99.90;;;;;;4989768;28;20030;-90
2023/11/01 04:37:43;;;;;;;1.38;0.38;;;11.20;99.90;;;;;;5006579;28;20027;-88
2023/11/01 04:40:11;;;;;;;0.70;0.20;;;11.10;99.90;;;;;;5007075;28;20029;-86
2023/11/01 04:42:41;;;;;;;0.88;0.20;;;11.10;99.90;;;;;;5008413;28;20141;-88
2023/11/01 04:45:10;;;;;;;1.50;0.20;;;11.20;99.90;;;;;;5020255;28;20053;-90
2023/11/01 04:47:39;;;;;;;0.50;0.20;;;11.10;99.90;;;;;;4988277;28;20038;-88
2023/11/01 04:50:11;;;;;;;0.60;0.20;;;11.20;99.90;;;;;;4991507;28;20502;-91
2023/11/01 04:52:37;;;;;;;0.65;0.20;;;11.20;99.90;;;;;;5022804;28;20045;-87
2023/11/01 04:55:04;;;;;;;0.85;0.30;;;11.20;99.90;;;;;;5007174;28;20026;-90
2023/11/01 04:57:30;;;;;;;0.55;0.20;;;11.20;99.90;;;;;;5023075;28;20053;-89
2023/11/01 04:59:56;;;;;;;0.63;0.20;;;11.20;99.90;;;;;;5009040;28;20702;-90
2023/11/01 05:02:22;;;;;;;0.90;0.20;;;11.20;99.90;;;;;;4989037;28;20121;-88
2023/11/01 05:04:48;;;;;;;1.15;0.20;;;11.20;99.90;;;;;;4994442;28;20030;-86
2023/11/01 05:07:14;;;;;;;0.60;0.20;;;11.20;99.90;;;;;;5008485;28;20432;-89
2023/11/01 05:09:40;;;;;;;0.88;0.40;;;11.30;99.90;;;;;;5005154;28;20381;-90
2023/11/01 05:12:06;;;;;;;0.80;0.20;;;11.30;99.90;;;;;;4988749;28;20042;-88
2023/11/01 05:14:31;;;;;;;0.82;0.10;;;11.30;99.90;;;;;;5008574;28;20107;-87
2023/11/01 05:16:57;;;;;;;0.30;0.10;;;11.30;99.90;;;;;;5007984;28;20030;-88
2023/11/01 05:19:23;;;;;;;0.43;0.20;;;11.30;99.90;;;;;;4999293;28;20092;-92
2023/11/01 05:21:49;;;;;;;0.30;0.20;;;11.30;99.90;;;;;;5014736;28;20026;-88
2023/11/01 05:24:15;;;;;;;0.30;0.10;;;11.30;99.90;;;;;;5006813;28;20080;-89
2023/11/01 05:26:42;;;;;;;1.00;0.20;;;11.40;99.90;;;;;;5005882;28;20121;-90
2023/11/01 05:29:09;;;;;;;0.80;0.30;;;11.40;99.90;;;;;;5019501;28;20079;-88
2023/11/01 05:31:35;;;;;;;0.68;0.20;;;11.40;99.90;;;;;;5007171;28;20029;-85
2023/11/01 05:34:02;;;;;;;1.05;0.30;;;11.40;99.90;;;;;;5005934;28;20042;-88
2023/11/01 05:36:28;;;;;;;1.08;0.22;;;11.50;99.90;;;;;;4990166;28;20395;-91
2023/11/01 05:38:54;;;;;;;1.85;0.30;;;11.60;99.90;;;;;;5005470;28;20025;-88
2023/11/01 05:41:20;;;;;;;1.08;0.40;;;11.50;99.90;;;;;;5006639;28;20426;-87
2023/11/01 05:43:46;;;;;;;0.90;0.30;;;11.50;99.90;;;;;;4991029;28;20148;-89
2023/11/01 05:46:11;;;;;;;2.05;0.70;;;11.50;99.90;;;;;;5022730;28;20101;-91
2023/11/01 05:48:37;;;;;;;0.70;0.40;;;11.60;99.90;;;;;;5003052;28;20030;-85
2023/11/01 05:51:04;;;;;;;1.88;0.40;;;11.60;99.90;;;;;;5008692;28;20026;-88
2023/11/01 05:53:33;;;;;;;0.65;0.30;;;11.60;99.90;;;;;;5006304;28;20042;-90
2023/11/01 05:55:59;;;;;;;0.70;0.40;;;11.60;99.90;;;;;;5024329;28;20116;-87
2023/11/01 05:58:26;;;;;;;2.72;0.68;;;11.60;99.90;;;;;;5019896;28;20074;-88
2023/11/01 06:00:52;;;;;;;1.40;0.40;;;11.60;99.90;;;;;;5005474;28;20034;-87
2023/11/01 06:03:19;;;;;;;1.05;0.40;;;11.60;99.90;;;;;;4989394;28;20044;-91
2023/11/01 06:05:46;;;;;;;1.20;0.60;;;11.70;99.90;;;;;;4990302;28;20023;-90
2023/11/01 06:08:13;;;;;;;3.25;0.60;;;11.70;99.90;;;;;;5007407;28;20142;-90
2023/11/01 06:10:41;;;;;;;1.58;0.40;;;11.70;99.90;;;;;;5004229;28;20390;-86
2023/11/01 06:13:09;;;;;;;1.00;0.50;;;11.70;99.90;;;;;;5003994;28;20045;-86
2023/11/01 06:15:36;;;;;;;1.70;0.40;;;11.70;99.90;;;;;;5005328;28;20029;-88
2023/11/01 06:18:05;;;;;;;1.48;0.40;;;11.70;99.90;;;;;;4990384;28;20099;-90
2023/11/01 06:20:33;;;;;;;2.15;0.63;;;11.80;99.90;;;;;;5003264;28;20064;-88
2023/11/01 06:22:59;;;;;;;1.05;0.30;;;11.80;99.90;;;;;;5006358;28;20437;-89
2023/11/01 06:25:25;;;;;;;1.77;0.40;;;11.80;99.90;;;;;;4984494;28;20149;-90
2023/11/01 06:27:51;;;;;;;3.83;0.30;;;11.80;99.90;;;;;;5003047;28;20394;-90
2023/11/01 06:30:16;;;;;;;2.15;0.25;;;11.90;99.90;;;;;;5005632;28;20033;-89
2023/11/01 06:32:42;;;;;;;1.08;0.30;;;11.80;99.90;;;;;;5021856;28;20041;-88
2023/11/01 06:35:08;;;;;;;1.80;0.30;;;11.80;99.90;;;;;;4989187;28;20049;-88
2023/11/01 06:37:35;;;;;;;0.85;0.30;;;11.80;99.90;;;;;;5004556;28;20030;-90
2023/11/01 06:40:02;;;;;;;4.90;0.50;;;11.90;99.90;;;;;;5007563;28;20026;-91
2023/11/01 06:42:28;;;;;;;1.25;0.40;;;11.90;99.90;;;;;;5021473;28;20120;-89
2023/11/01 06:44:54;;;;;;;3.60;0.60;;;11.90;99.90;;;;;;5007032;28;20144;-91
2023/11/01 06:47:20;;;;;;;2.53;0.40;;;11.90;99.90;;;;;;5006717;28;20026;-90
2023/11/01 06:49:47;;;;;;;2.25;0.32;;;11.90;99.90;;;;;;5000279;28;20026;-89
2023/11/01 06:52:13;;;;;;;2.55;0.45;;;11.90;99.90;;;;;;5014936;28;20100;-90
2023/11/01 06:54:40;;;;;;;1.67;0.30;;;11.90;99.90;;;;;;5003305;28;20030;-89
2023/11/01 06:57:07;;;;;;;1.70;0.30;;;11.90;99.90;;;;;;4988528;28;20053;-90
2023/11/01 06:59:32;;;;;;;3.08;0.40;;;11.90;99.90;;;;;;5001372;28;20030;-88
2023/11/01 07:01:58;;;;;;;1.92;0.47;;;12.00;99.90;;;;;;5004357;28;20034;-92
2023/11/01 07:04:24;;;;;;;2.28;0.60;;;12.10;99.90;;;;;;4990927;28;20057;-91
2023/11/01 07:06:50;;;;;;;2.35;0.60;;;12.00;99.90;;;;;;4992718;28;20065;-89
2023/11/01 07:09:16;;;;;;;1.55;0.50;;;12.00;99.90;;;;;;5007442;28;20065;-85
2023/11/01 07:11:41;;;;;;;1.88;0.73;;;12.00;99.90;;;;;;5006164;28;20461;-93
2023/11/01 07:14:09;;;;;;;3.13;0.70;;;12.10;99.90;;;;;;5004171;28;20053;-90
2023/11/01 07:16:39;;;;;;;2.20;0.50;;;12.10;99.90;;;;;;5006353;28;20072;-88
2023/11/01 07:19:06;;;;;;;1.50;0.40;;;12.10;99.90;;;;;;5019271;28;20035;-88
2023/11/01 07:21:32;;;;;;;2.15;0.50;;;12.10;99.90;;;;;;5004478;28;20486;-87
2023/11/01 07:23:57;;;;;;;3.75;0.63;;;12.10;99.90;;;;;;5004247;28;20030;-91
2023/11/01 07:26:23;;;;;;;2.70;0.50;;;12.10;99.90;;;;;;5022400;28;20025;-87
2023/11/01 07:28:49;;;;;;;4.32;0.50;;;12.10;99.90;;;;;;5004368;28;20120;-89
2023/11/01 07:31:15;;;;;;;1.55;0.38;;;12.10;99.90;;;;;;5003601;28;20038;-87
2023/11/01 07:33:42;;;;;;;1.92;0.40;;;12.10;99.90;;;;;;5003192;28;20144;-88
2023/11/01 07:36:08;;;;;;;3.95;0.40;;;12.20;99.90;;;;;;5008088;28;20026;-91
2023/11/01 07:38:35;;;;;;;3.40;0.40;;;12.10;99.90;;;;;;5004790;28;20045;-89
2023/11/01 07:41:01;;;;;;;2.45;0.35;;;12.20;99.90;;;;;;5004024;28;20041;-90
2023/11/01 07:43:27;;;;;;;2.78;0.40;;;12.20;99.90;;;;;;5003398;28;20040;-90
2023/11/01 07:45:53;;;;;;;1.63;0.22;;;12.20;99.90;;;;;;4991209;28;20035;-89
2023/11/01 07:48:19;;;;;;;3.67;0.30;;;12.20;99.90;;;;;;5005114;28;20030;-86
2023/11/01 07:50:45;;;;;;;3.38;0.30;;;12.20;99.90;;;;;;4995295;28;20037;-89
2023/11/01 07:53:11;;;;;;;3.53;0.35;;;12.20;99.90;;;;;;5005785;28;20061;-92
2023/11/01 07:55:36;;;;;;;4.05;0.95;;;12.20;99.90;;;;;;5022370;28;20026;-91
2023/11/01 07:58:02;;;;;;;1.15;0.20;;;12.20;99.90;;;;;;4993221;28;20033;-92
2023/11/01 08:00:28;;;;;;;3.13;0.30;;;12.30;99.90;;;;;;5019550;28;20581;-90
2023/11/01 08:02:53;;;;;;;4.45;0.40;;;12.30;99.90;;;;;;4986337;28;20033;-92
2023/11/01 08:05:23;;;;;;;3.35;0.20;;;12.30;99.90;;;;;;5005750;28;20039;-88
2023/11/01 08:07:49;;;;;;;1.90;0.30;;;12.30;99.90;;;;;;4998449;28;20034;-91
2023/11/01 08:10:15;;;;;;;3.47;0.30;;;12.40;99.90;;;;;;5003967;28;20040;-92
2023/11/01 08:12:41;;;;;;;7.22;0.40;;;12.40;99.90;;;;;;4988951;28;20132;-93
2023/11/01 08:15:07;;;;;;;2.88;0.30;;;12.40;99.90;;;;;;5001958;28;20026;-92
2023/11/01 08:17:33;;;;;;;2.58;0.30;;;12.50;99.90;;;;;;5002054;28;20386;-89
2023/11/01 08:19:59;;;;;;;10.32;0.65;;;12.60;99.90;;;;;;4991148;28;20042;-92
2023/11/01 08:22:25;;;;;;;4.45;0.40;;;12.60;99.90;;;;;;4983316;28;20030;-89
2023/11/01 08:24:51;;;;;;;4.00;0.40;;;12.60;99.90;;;;;;5014809;28;20065;-88
2023/11/01 08:27:17;;;;;;;2.08;0.30;;;12.70;99.90;;;;;;5001510;28;20049;-90
2023/11/01 08:29:43;;;;;;;2.83;0.52;;;12.80;99.90;;;;;;5017400;28;20490;-87
2023/11/01 08:32:10;;;;;;;2.72;0.40;;;12.80;99.90;;;;;;5017167;28;20040;-90
2023/11/01 08:34:36;;;;;;;2.50;0.30;;;12.80;99.90;;;;;;5000957;28;20474;-88
2023/11/01 08:37:04;;;;;;;5.22;0.75;;;12.80;99.90;;;;;;5000270;28;20080;-90
2023/11/01 08:39:30;;;;;;;2.70;0.50;;;12.80;99.90;;;;;;5000450;28;20041;-91
2023/11/01 08:41:57;;;;;;;4.00;0.40;;;12.80;99.90;;;;;;5000207;28;20025;-88
2023/11/01 08:44:22;;;;;;;5.85;0.90;;;12.90;99.90;;;;;;5002316;28;20050;-91
2023/11/01 08:46:48;;;;;;;3.35;0.30;;;12.80;99.90;;;;;;5020284;28;20023;-91
2023/11/01 08:49:13;;;;;;;2.03;0.22;;;12.90;99.90;;;;;;5003915;28;20044;-87
2023/11/01 08:51:39;;;;;;;4.57;0.30;;;12.90;99.90;;;;;;5014767;28;20034;-91
2023/11/01 08:54:06;;;;;;;2.97;0.30;;;12.90;99.90;;;;;;5000967;28;20038;-91
2023/11/01 08:56:31;;;;;;;4.70;0.40;;;12.90;99.90;;;;;;5000364;28;20030;-91
2023/11/01 08:58:57;;;;;;;3.47;0.20;;;12.90;99.90;;;;;;5001973;28;20516;-85
2023/11/01 09:01:24;;;;;;;1.85;0.30;;;13.00;99.90;;;;;;5005929;28;20104;-93
2023/11/01 09:03:50;;;;;;;1.25;0.17;;;13.00;99.90;;;;;;4988782;28;20028;-91
2023/11/01 09:06:16;;;;;;;5.05;0.30;;;13.00;99.90;;;;;;4984513;28;20176;-92
2023/11/01 09:08:42;;;;;;;3.58;0.30;;;13.00;99.90;;;;;;5000575;28;20120;-90
2023/11/01 09:11:08;;;;;;;5.18;0.52;;;13.00;99.90;;;;;;5016492;28;20034;-89
2023/11/01 09:13:34;;;;;;;6.30;0.40;;;13.00;99.90;;;;;;5000973;28;20049;-91
2023/11/01 09:16:00;;;;;;;3.40;0.40;;;13.00;99.90;;;;;;5007505;28;20034;-90
2023/11/01 09:18:25;;;;;;;3.67;0.47;;;13.10;99.90;;;;;;5009287;28;20125;-90
2023/11/01 09:20:51;;;;;;;3.50;0.30;;;13.20;99.90;;;;;;5002532;28;20033;-91
2023/11/01 09:23:17;;;;;;;2.47;0.20;;;13.20;99.90;;;;;;4983767;28;20032;-93
2023/11/01 09:25:42;;;;;;;3.80;0.30;;;13.30;99.90;;;;;;5002438;28;20030;-93
2023/11/01 09:28:08;;;;;;;3.50;0.88;;;13.20;99.90;;;;;;5000667;28;20038;-89
2023/11/01 09:30:35;;;;;;;3.30;0.30;;;13.20;99.90;;;;;;5006015;28;20058;-93
2023/11/01 09:33:01;;;;;;;3.95;0.20;;;13.30;99.90;;;;;;4981116;28;20062;-87
2023/11/01 09:35:27;;;;;;;5.47;0.40;;;13.40;99.90;;;;;;4999243;28;20077;-92
2023/11/01 09:37:53;;;;;;;3.95;0.30;;;13.30;99.90;;;;;;4989200;28;20066;-89
2023/11/01 09:40:19;;;;;;;4.05;0.32;;;13.40;99.90;;;;;;5000203;28;20018;-91
2023/11/01 09:42:47;;;;;;;4.43;0.50;;;13.50;99.90;;;;;;5017207;28;20041;-89
2023/11/01 09:45:13;;;;;;;2.70;0.20;;;13.50;99.90;;;;;;5020540;28;20050;-92
2023/11/01 09:47:40;;;;;;;2.95;0.30;;;13.50;99.90;;;;;;5020255;28;20445;-85
2023/11/01 09:50:07;;;;;;;2.28;0.30;;;13.60;99.90;;;;;;4991720;28;20120;-90
2023/11/01 09:52:33;;;;;;;1.55;0.20;;;13.60;99.90;;;;;;4986103;28;20478;-88
2023/11/01 09:55:00;;;;;;;3.25;0.20;;;13.70;99.90;;;;;;5016153;28;20040;-87
2023/11/01 09:57:29;;;;;;;2.45;0.20;;;13.70;99.90;;;;;;4986879;28;20029;-89
2023/11/01 09:59:56;;;;;;;2.47;0.30;;;13.70;99.90;;;;;;5019924;28;20074;-88
2023/11/01 10:02:22;;;;;;;2.75;0.20;;;13.70;99.90;;;;;;4986379;28;20030;-86
2023/11/01 10:04:50;;;;;;;4.60;0.30;;;13.80;99.90;;;;;;4998060;28;20029;-85
2023/11/01 10:07:17;;;;;;;3.55;0.25;;;14.00;99.90;;;;;;5017958;28;20034;-88
2023/11/01 10:09:43;;;;;;;3.05;0.30;;;14.00;99.90;;;;;;5018523;28;20478;-87
2023/11/01 10:12:08;;;;;;;3.55;0.30;;;14.00;99.90;;;;;;5016561;28;20029;-89
2023/11/01 10:14:36;;;;;;;3.55;0.20;;;14.00;99.90;;;;;;5008731;28;20033;-87
2023/11/01 10:17:03;;;;;;;4.40;0.20;;;13.90;99.90;;;;;;5002637;28;20542;-88
2023/11/01 10:19:29;;;;;;;2.22;0.30;;;13.90;99.90;;;;;;4987189;28;20034;-87
2023/11/01 10:21:55;;;;;;;1.92;0.30;;;13.90;99.90;;;;;;4986290;28;20062;-87
2023/11/01 10:24:25;;;;;;;2.47;0.20;;;14.00;99.90;;;;;;5016115;28;20065;-88
2023/11/01 10:26:56;;;;;;;2.63;0.30;;;14.10;99.90;;;;;;5015120;28;20029;-90
2023/11/01 10:29:23;;;;;;;3.50;0.30;;;14.00;99.90;;;;;;5003056;28;20048;-87
2023/11/01 10:31:55;;;;;;;3.40;0.30;;;13.90;99.90;;;;;;5002786;28;20583;-87
2023/11/01 10:34:29;;;;;;;1.42;0.20;;;13.90;99.90;;;;;;5007195;28;20041;-85
2023/11/01 10:36:56;;;;;;;3.30;0.30;;;13.90;99.90;;;;;;5008208;28;20028;-88
2023/11/01 10:39:22;;;;;;;1.77;0.20;;;14.00;99.90;;;;;;5005303;28;20392;-85
2023/11/01 10:41:53;;;;;;;2.30;0.30;;;14.10;99.90;;;;;;5018573;28;20034;-85
2023/11/01 10:44:20;;;;;;;1.67;0.30;;;14.20;99.90;;;;;;5001460;28;20081;-88
2023/11/01 10:46:46;;;;;;;1.45;0.45;;;14.20;99.90;;;;;;4988903;28;20029;-87
2023/11/01 10:49:12;;;;;;;2.00;0.25;;;14.10;99.90;;;;;;4984370;28;20033;-87
2023/11/01 10:51:39;;;;;;;2.65;0.30;;;14.00;99.90;;;;;;5006701;28;20561;-87
2023/11/01 10:54:05;;;;;;;1.50;0.30;;;14.00;99.90;;;;;;4987010;28;20029;-86
2023/11/01 10:56:31;;;;;;;3.72;0.35;;;14.00;99.90;;;;;;5019007;28;20032;-90
2023/11/01 10:59:09;;;;;;;2.33;0.30;;;13.90;99.90;;;;;;5007195;28;20120;-88
2023/11/01 11:01:42;;;;;;;1.92;0.25;;;13.90;99.90;;;;;;4998790;28;20029;-87
2023/11/01 11:04:22;;;;;;;3.97;0.30;;;13.90;99.90;;;;;;5019590;28;20459;-88
2023/11/01 11:06:57;;;;;;;3.40;0.43;;;13.80;99.90;;;;;;4998640;28;20044;-88
2023/11/01 11:09:24;;;;;;;2.63;0.20;;;13.90;99.90;;;;;;5018886;28;20017;-88
2023/11/01 11:12:13;;;;;;;1.88;0.45;;;14.00;99.90;;;;;;5004432;28;20034;-90
2023/11/01 11:14:43;;;;;;;2.10;0.22;;;14.10;99.90;;;;;;4998139;28;20048;-87
2023/11/01 11:17:19;;;;;;;3.63;0.20;;;14.10;99.90;;;;;;5001092;28;20036;-87
2023/11/01 11:20:13;;;;;;;2.72;0.40;;;14.20;99.90;;;;;;4997160;28;20057;-91
2023/11/01 11:22:57;;;;;;;4.57;0.28;;;14.40;99.90;;;;;;4998415;28;20048;-89
2023/11/01 11:25:39;;;;;;;0.82;0.10;;;14.50;99.90;;;;;;5019171;28;20235;-91
2023/11/01 11:28:05;;;;;;;0.70;0.10;;;14.50;99.90;;;;;;5000830;28;20472;-90
2023/11/01 11:31:05;;;;;;;0.68;0.20;;;14.40;99.90;;;;;;5005317;28;20121;-88
2023/11/01 11:33:37;;;;;;;1.27;0.13;;;14.30;99.90;;;;;;5015079;28;20041;-87
2023/11/01 11:36:17;;;;;;;3.65;0.30;;;14.50;99.90;;;;;;5016952;28;20022;-89
2023/11/01 11:38:50;;;;;;;;;;;14.60;99.90;;;;;;4999337;28;20049;-89
2023/11/01 11:41:16;;;;;;;2.00;0.20;;;14.70;99.90;;;;;;4981764;28;20361;-88
2023/11/01 11:44:00;;;;;;;4.03;0.28;;;14.60;99.90;;;;;;5015320;28;20042;-88
2023/11/01 11:46:31;;;;;;;2.33;0.20;;;14.70;99.90;;;;;;5001214;28;20033;-87
2023/11/01 11:49:37;;;;;;;1.58;0.13;;;14.70;99.90;;;;;;5006701;28;20026;-87
2023/11/01 11:52:11;;;;;;;2.33;0.20;;;14.80;99.90;;;;;;4998257;28;20450;-87
2023/11/01 11:54:37;;;;;;;1.85;0.15;;;14.70;99.90;;;;;;4984972;28;20034;-86
2023/11/01 11:57:13;;;;;;;1.95;0.20;;;14.90;99.90;;;;;;4998668;28;20358;-87
2023/11/01 11:59:41;;;;;;;2.10;0.20;;;15.20;99.90;;;;;;4998534;28;20030;-86
2023/11/01 12:02:15;;;;;;;2.35;0.10;;;15.00;99.90;;;;;;4991403;28;20021;-86
2023/11/01 12:04:43;;;;;;;1.55;0.10;;;15.00;99.90;;;;;;5001750;28;20041;-89
2023/11/01 12:07:18;;;;;;;1.77;0.20;;;15.20;99.90;;;;;;4984733;28;20121;-89
2023/11/01 12:09:51;;;;;;;2.97;0.20;;;15.30;99.90;;;;;;4999357;28;20039;-84
2023/11/01 12:12:17;;;;;;;1.35;0.10;;;15.40;99.90;;;;;;5011970;28;20136;-89
2023/11/01 12:14:44;;;;;;;1.55;0.20;;;15.40;99.90;;;;;;4988791;28;20117;-86
2023/11/01 12:17:10;;;;;;;1.85;0.20;;;15.40;99.90;;;;;;5001683;28;20091;-87
2023/11/01 12:19:43;;;;;;;2.28;0.30;;;15.20;99.90;;;;;;5002296;28;20034;-90
2023/11/01 12:22:09;;;;;;;1.73;0.10;;;15.00;99.90;;;;;;5014764;28;20034;-87
2023/11/01 12:24:38;;;;;;;1.08;0.20;;;14.90;99.90;;;;;;4999547;28;20049;-90
2023/11/01 12:27:05;;;;;;;1.13;0.10;;;14.80;99.90;;;;;;5006508;28;20053;-89
2023/11/01 12:29:35;;;;;;;0.82;0.10;;;14.70;99.90;;;;;;5018456;28;20617;-88
2023/11/01 12:32:06;;;;;;;1.05;0.10;;;14.70;99.90;;;;;;5004924;28;20454;-88
2023/11/01 12:34:33;;;;;;;0.85;0.10;;;14.80;99.90;;;;;;5018979;28;20036;-88
2023/11/01 12:37:03;;;;;;;1.48;0.10;;;15.10;99.90;;;;;;5004444;28;20041;-88
2023/11/01 12:39:29;;;;;;;0.98;0.10;;;15.10;99.90;;;;;;5019183;28;20033;-87
2023/11/01 12:41:55;;;;;;;1.35;0.10;;;15.00;99.90;;;;;;4988768;28;20026;-89
2023/11/01 12:44:24;;;;;;;1.50;0.10;;;15.10;99.90;;;;;;5010737;28;20050;-86
2023/11/01 12:46:50;;;;;;;1.00;0.10;;;15.00;99.90;;;;;;5001489;28;20037;-88
2023/11/01 12:49:16;;;;;;;1.67;0.20;;;15.20;99.90;;;;;;5018506;28;20030;-89